Time;durP1;ratioP1;P1;durP2;ratioP2;P2;SDS_P1;SDS_P2;PMS_P1;PMS_P2;Temp;Humidity;BMP_temperature;BMP_pressure;BME280_temperature;BME280_humidity;BME280_pressure;Samples;Min_cycle;Max_cycle;Signal;HPM_P1;HPM_P2
2021/06/18 00:00:21;;;;;;;8.10;4.63;;;;;;;23.89;52.43;100981.25;5093286;28;20052;-71
2021/06/18 00:02:48;;;;;;;6.70;4.82;;;;;;;23.76;52.23;100976.84;5093448;28;20032;-70
2021/06/18 00:05:14;;;;;;;9.02;4.70;;;;;;;23.71;52.22;100983.84;5092260;28;20059;-71
2021/06/18 00:07:42;;;;;;;8.38;5.65;;;;;;;23.71;52.31;100973.31;5069132;28;20099;-71
2021/06/18 00:10:10;;;;;;;6.78;4.90;;;;;;;23.66;52.90;100975.97;5090632;28;20107;-71
2021/06/18 00:12:35;;;;;;;13.27;5.25;;;;;;;23.56;53.25;100980.34;5091807;28;20020;-71
2021/06/18 00:15:02;;;;;;;8.98;4.60;;;;;;;23.57;53.51;100987.34;5091413;28;20035;-71
2021/06/18 00:17:28;;;;;;;5.95;4.82;;;;;;;23.58;53.40;100991.72;5091757;28;20032;-71
2021/06/18 00:19:54;;;;;;;13.82;4.97;;;;;;;23.55;53.20;100997.00;5075022;28;20039;-70
2021/06/18 00:22:19;;;;;;;8.82;4.85;;;;;;;23.47;53.85;100997.00;5092686;28;20039;-71
2021/06/18 00:24:45;;;;;;;10.57;5.70;;;;;;;23.49;53.64;100994.34;5091321;28;20028;-71
2021/06/18 00:27:10;;;;;;;7.72;4.78;;;;;;;23.44;53.62;100989.09;5091586;28;20412;-71
2021/06/18 00:29:35;;;;;;;7.90;5.22;;;;;;;23.46;53.55;100989.09;5094278;28;20075;-71
2021/06/18 00:32:01;;;;;;;8.07;4.68;;;;;;;23.39;54.15;100987.34;5095028;28;20472;-71
2021/06/18 00:34:26;;;;;;;9.15;5.20;;;;;;;23.29;53.95;100982.06;5094751;28;20051;-72
2021/06/18 00:36:52;;;;;;;6.88;4.63;;;;;;;23.28;54.19;100980.31;5096829;28;20063;-71
2021/06/18 00:39:17;;;;;;;7.72;4.88;;;;;;;23.29;54.43;100981.16;5099280;28;20031;-71
2021/06/18 00:41:42;;;;;;;8.10;4.80;;;;;;;23.12;54.72;100975.88;5099068;28;20111;-70
2021/06/18 00:44:08;;;;;;;9.77;5.70;;;;;;;23.10;55.27;100975.84;5116748;28;20032;-71
2021/06/18 00:46:34;;;;;;;8.35;5.18;;;;;;;22.99;55.06;100973.22;5117289;28;20023;-71
2021/06/18 00:48:59;;;;;;;11.15;5.07;;;;;;;22.95;55.21;100976.69;5082052;28;20084;-71
2021/06/18 00:51:25;;;;;;;8.77;5.43;;;;;;;22.90;55.78;100978.44;5099216;28;20023;-71
2021/06/18 00:53:51;;;;;;;14.10;6.20;;;;;;;22.86;55.77;100977.53;5098470;28;20027;-71
2021/06/18 00:56:17;;;;;;;8.95;4.80;;;;;;;22.80;56.39;100981.88;5081754;28;20100;-71
2021/06/18 00:58:42;;;;;;;7.47;5.53;;;;;;;22.82;55.86;100981.03;5117125;28;20035;-71
2021/06/18 01:01:08;;;;;;;8.95;5.00;;;;;;;22.76;56.28;100981.84;5117219;28;20020;-71
2021/06/18 01:03:33;;;;;;;11.02;5.50;;;;;;;22.80;56.38;100981.88;5098434;28;20379;-71
2021/06/18 01:05:59;;;;;;;8.02;5.13;;;;;;;22.72;56.51;100982.72;5116992;28;20063;-72
2021/06/18 01:08:32;;;;;;;8.15;5.47;;;;;;;22.65;56.59;100988.81;5116824;28;20019;-71
2021/06/18 01:11:05;;;;;;;9.20;4.88;;;;;;;22.73;56.64;100976.59;5098637;28;20024;-71
2021/06/18 01:13:31;;;;;;;6.95;5.50;;;;;;;22.67;56.98;100971.31;5098181;28;20020;-71
2021/06/18 01:16:16;;;;;;;8.18;4.80;;;;;;;22.57;57.67;100974.78;5116373;28;20088;-71
2021/06/18 01:18:58;;;;;;;14.65;5.05;;;;;;;22.57;57.18;100974.78;5081514;28;20026;-71
2021/06/18 01:21:39;;;;;;;10.00;5.68;;;;;;;22.44;57.57;100968.56;5081532;28;20027;-71
2021/06/18 01:24:23;;;;;;;10.93;5.40;;;;;;;22.46;57.44;100972.13;5097850;28;20027;-71
2021/06/18 01:27:06;;;;;;;6.47;5.15;;;;;;;22.45;57.89;100965.97;5116418;28;20048;-71
2021/06/18 01:29:35;;;;;;;10.77;5.45;;;;;;;22.38;58.40;100964.16;5116226;28;20094;-71
2021/06/18 01:32:03;;;;;;;7.63;5.90;;;;;;;22.37;58.29;100961.53;5116200;28;20016;-71
2021/06/18 01:34:31;;;;;;;11.60;5.97;;;;;;;22.27;58.60;100963.22;5080500;28;20035;-71
2021/06/18 01:37:04;;;;;;;10.93;5.75;;;;;;;22.30;58.27;100961.50;5098079;28;20066;-71
2021/06/18 01:39:31;;;;;;;7.53;4.95;;;;;;;22.25;58.59;100951.84;5098014;28;20027;-71
2021/06/18 01:41:58;;;;;;;11.40;5.50;;;;;;;22.09;58.89;100951.75;5115974;28;20384;-71
2021/06/18 01:44:24;;;;;;;7.93;5.90;;;;;;;22.11;58.77;100950.00;5080620;28;20034;-72
2021/06/18 01:46:50;;;;;;;7.57;5.68;;;;;;;22.15;59.24;100950.88;5080874;28;20027;-72
2021/06/18 01:49:16;;;;;;;11.35;5.53;;;;;;;22.03;59.22;100941.22;5096313;28;20027;-71
2021/06/18 01:51:44;;;;;;;11.70;5.57;;;;;;;22.06;59.00;100956.06;5116042;28;20051;-71
2021/06/18 01:54:10;;;;;;;8.18;5.88;;;;;;;22.03;59.32;100949.09;5115076;28;20077;-71
2021/06/18 01:56:39;;;;;;;7.90;5.57;;;;;;;21.99;59.31;100949.94;5096711;28;20495;-72
2021/06/18 01:59:05;;;;;;;;;;;;;;;22.01;59.59;100948.19;5097912;28;20069;-71
2021/06/18 02:01:41;;;;;;;7.28;5.53;;;;;;;21.87;60.04;100940.22;5103374;27;20322;-71
2021/06/18 02:04:07;;;;;;;7.78;5.43;;;;;;;21.88;59.95;100940.25;5077619;28;20030;-71
2021/06/18 02:06:35;;;;;;;9.15;5.45;;;;;;;21.80;60.03;100923.59;5094019;28;20115;-68
2021/06/18 02:09:02;;;;;;;10.68;5.57;;;;;;;21.82;59.86;100931.44;5095009;28;20055;-68
2021/06/18 02:11:29;;;;;;;7.97;5.85;;;;;;;21.81;59.82;100925.34;5093207;28;20051;-69
2021/06/18 02:13:56;;;;;;;8.52;5.65;;;;;;;21.83;60.07;100934.09;5100327;28;20464;-68
2021/06/18 02:16:24;;;;;;;9.05;5.88;;;;;;;21.76;60.16;100932.28;5115238;28;20028;-69
2021/06/18 02:18:52;;;;;;;10.68;6.53;;;;;;;21.76;60.17;100927.06;5097028;28;20027;-69
2021/06/18 02:21:18;;;;;;;12.85;6.07;;;;;;;21.78;59.97;100930.56;5115399;28;20110;-68
2021/06/18 02:23:44;;;;;;;7.47;5.90;;;;;;;21.85;59.83;100937.59;5096908;28;20062;-69
2021/06/18 02:26:10;;;;;;;6.82;5.85;;;;;;;21.92;59.44;100948.13;5096430;28;20032;-68
2021/06/18 02:28:36;;;;;;;9.70;5.68;;;;;;;21.93;59.34;100944.66;5096952;28;20019;-68
2021/06/18 02:31:02;;;;;;;10.18;5.97;;;;;;;21.96;59.22;100939.44;5097023;28;20044;-69
2021/06/18 02:33:27;;;;;;;7.15;5.20;;;;;;;21.89;59.36;100939.38;5096714;28;20085;-69
2021/06/18 02:36:32;;;;;;;11.50;5.88;;;;;;;21.96;59.21;100924.56;5105601;28;20040;-68
2021/06/18 02:38:58;;;;;;;8.85;5.38;;;;;;;21.99;59.49;100926.34;5091668;28;20034;-68
2021/06/18 02:41:24;;;;;;;9.65;5.72;;;;;;;21.95;59.44;100927.19;5118125;27;20026;-68
2021/06/18 02:43:49;;;;;;;10.27;6.32;;;;;;;21.87;59.67;100940.22;5103275;27;20034;-69
2021/06/18 02:46:30;;;;;;;10.38;5.90;;;;;;;21.89;59.67;100928.91;5120155;27;20019;-68
2021/06/18 02:48:58;;;;;;;9.02;6.15;;;;;;;21.84;59.38;100930.59;5126069;27;20036;-69
2021/06/18 02:51:37;;;;;;;9.20;5.87;;;;;;;21.83;59.38;100918.38;5121122;27;20066;-69
2021/06/18 02:54:27;;;;;;;11.85;6.68;;;;;;;21.87;59.73;100922.75;5103763;27;20024;-68
2021/06/18 02:56:58;;;;;;;10.07;6.63;;;;;;;21.82;59.61;100916.59;5086532;27;20023;-68
2021/06/18 02:59:47;;;;;;;9.63;6.32;;;;;;;21.82;59.60;100915.72;5104353;27;20012;-69
2021/06/18 03:02:24;;;;;;;10.20;6.75;;;;;;;21.81;59.76;100920.09;5105887;27;20012;-70
2021/06/18 03:04:53;;;;;;;9.25;6.88;;;;;;;21.72;60.10;100914.75;5105888;27;20020;-72
2021/06/18 03:07:21;;;;;;;;;;;;;;;21.74;60.08;100923.53;5106896;27;20111;-71
2021/06/18 03:09:53;;;;;;;9.95;6.22;;;;;;;21.73;60.21;100930.50;5101978;27;19964;-71
2021/06/18 03:12:21;;;;;;;8.98;5.95;;;;;;;21.74;60.32;100934.03;5088422;27;20062;-71
2021/06/18 03:14:48;;;;;;;9.07;6.23;;;;;;;21.73;60.22;100937.47;5104898;27;20050;-71
2021/06/18 03:17:18;;;;;;;12.10;6.18;;;;;;;21.65;60.40;100936.56;5104832;27;20019;-71
2021/06/18 03:19:47;;;;;;;8.93;5.43;;;;;;;21.64;60.34;100934.78;5072751;28;20297;-71
2021/06/18 03:22:15;;;;;;;10.30;6.45;;;;;;;21.68;60.21;100933.94;5075821;28;20024;-71
2021/06/18 03:24:43;;;;;;;9.38;6.38;;;;;;;21.52;61.13;100931.19;5077608;28;20031;-72
2021/06/18 03:27:09;;;;;;;7.72;5.90;;;;;;;21.55;60.76;100928.56;5095813;28;20487;-71
2021/06/18 03:29:35;;;;;;;10.32;6.70;;;;;;;21.57;60.68;100932.09;5095917;28;20038;-71
2021/06/18 03:32:02;;;;;;;9.20;5.80;;;;;;;21.63;60.47;100931.31;5095894;28;20027;-72
2021/06/18 03:34:28;;;;;;;8.43;6.10;;;;;;;21.63;61.05;100935.63;5099428;28;20061;-71
2021/06/18 03:36:55;;;;;;;12.95;6.55;;;;;;;21.65;61.03;100941.78;5113192;28;20106;-71
2021/06/18 03:39:20;;;;;;;6.32;5.50;;;;;;;21.64;61.21;100942.66;5095383;28;20031;-71
2021/06/18 03:41:47;;;;;;;9.75;5.78;;;;;;;21.65;61.28;100944.41;5095794;28;20024;-71
2021/06/18 03:44:14;;;;;;;7.30;5.43;;;;;;;21.66;61.28;100951.41;5095578;28;20100;-71
2021/06/18 03:46:41;;;;;;;15.00;6.50;;;;;;;21.72;61.19;100944.50;5095374;28;20034;-71
2021/06/18 03:49:07;;;;;;;10.05;5.65;;;;;;;21.79;60.95;100953.28;5095564;28;20028;-71
2021/06/18 03:51:34;;;;;;;13.05;6.40;;;;;;;21.80;61.04;100955.06;5095651;28;20102;-71
2021/06/18 03:54:00;;;;;;;10.15;6.50;;;;;;;21.88;60.54;100974.34;5094954;28;20028;-71
2021/06/18 03:56:26;;;;;;;10.40;6.60;;;;;;;21.83;60.45;100955.06;5095601;28;20023;-72
2021/06/18 03:58:53;;;;;;;12.10;7.72;;;;;;;21.92;59.86;100959.50;5095418;28;20023;-72
2021/06/18 04:01:19;;;;;;;10.07;7.18;;;;;;;21.94;59.83;100962.13;5100761;28;20027;-71
2021/06/18 04:03:50;;;;;;;13.77;7.43;;;;;;;21.93;59.88;100960.38;5106152;27;20038;-71
2021/06/18 04:06:15;;;;;;;11.95;7.25;;;;;;;22.00;60.13;100956.94;5103857;28;20031;-70
2021/06/18 04:08:42;;;;;;;9.25;6.57;;;;;;;21.99;60.29;100952.56;5105146;27;20022;-71
2021/06/18 04:11:08;;;;;;;10.68;6.63;;;;;;;21.99;60.16;100952.56;5100393;28;20408;-71
2021/06/18 04:13:37;;;;;;;12.23;7.38;;;;;;;22.05;60.22;100949.97;5095227;28;20080;-72
2021/06/18 04:16:11;;;;;;;12.82;7.25;;;;;;;22.10;59.60;100945.63;5113262;28;20049;-72
2021/06/18 04:18:43;;;;;;;13.02;7.05;;;;;;;22.16;59.22;100948.28;5094829;28;20027;-71
2021/06/18 04:21:19;;;;;;;11.07;6.93;;;;;;;22.21;60.16;100950.06;5077734;28;20026;-71
2021/06/18 04:23:44;;;;;;;10.90;7.32;;;;;;;22.16;59.97;100943.03;5095119;28;20019;-71
2021/06/18 04:26:10;;;;;;;14.30;7.45;;;;;;;22.25;59.48;100936.09;5113294;28;20020;-71
2021/06/18 04:28:36;;;;;;;8.52;7.32;;;;;;;22.33;59.61;100950.13;5077955;28;20026;-71
2021/06/18 04:31:04;;;;;;;9.02;7.15;;;;;;;22.35;59.29;100948.41;5118131;28;20050;-71
2021/06/18 04:33:31;;;;;;;13.75;7.32;;;;;;;22.35;59.01;100943.16;5074844;28;20023;-71
2021/06/18 04:35:56;;;;;;;11.13;6.80;;;;;;;22.51;58.52;100948.50;5080408;28;20027;-72
2021/06/18 04:38:21;;;;;;;11.75;7.30;;;;;;;22.54;58.07;100943.25;5087447;28;20034;-72
2021/06/18 04:40:47;;;;;;;11.63;7.90;;;;;;;22.54;58.33;100948.50;5104281;28;20031;-71
2021/06/18 04:43:13;;;;;;;11.77;7.53;;;;;;;22.54;57.95;100943.25;5104416;28;20023;-72
2021/06/18 04:45:38;;;;;;;10.40;7.13;;;;;;;22.59;57.59;100941.53;5101030;28;20024;-71
2021/06/18 04:48:04;;;;;;;11.07;7.80;;;;;;;22.61;57.80;100945.03;5122327;28;20031;-71
2021/06/18 04:50:29;;;;;;;9.70;7.10;;;;;;;22.75;57.38;100948.59;5105405;28;20019;-71
2021/06/18 04:52:55;;;;;;;12.02;6.88;;;;;;;22.80;57.16;100955.59;5100514;28;20019;-71
2021/06/18 04:55:21;;;;;;;10.23;7.20;;;;;;;22.83;57.40;100958.28;5121336;28;20031;-71
2021/06/18 04:57:48;;;;;;;21.35;7.40;;;;;;;22.83;57.18;100955.66;5112492;28;20072;-72
2021/06/18 05:00:16;;;;;;;8.70;6.90;;;;;;;22.77;57.16;100952.09;5094652;28;20592;-72
2021/06/18 05:02:42;;;;;;;16.50;7.90;;;;;;;22.60;57.02;100953.78;5094807;28;20031;-72
2021/06/18 05:05:08;;;;;;;9.45;7.53;;;;;;;22.71;56.73;100946.84;5094726;28;20525;-71
2021/06/18 05:07:34;;;;;;;12.98;6.95;;;;;;;22.75;57.45;100943.34;5112729;28;20235;-71
2021/06/18 05:09:59;;;;;;;9.00;6.95;;;;;;;23.01;56.57;100945.19;5075101;28;20039;-71
2021/06/18 05:12:24;;;;;;;11.07;6.78;;;;;;;23.16;56.90;100943.47;5077890;28;20114;-72
2021/06/18 05:14:50;;;;;;;12.00;7.30;;;;;;;23.17;56.36;100945.22;5094597;28;20110;-71
2021/06/18 05:17:15;;;;;;;9.63;6.53;;;;;;;23.08;55.12;100956.56;5112630;28;20111;-71
2021/06/18 05:19:41;;;;;;;10.75;7.43;;;;;;;23.21;54.20;100939.09;5094426;28;20077;-72
2021/06/18 05:22:07;;;;;;;9.95;6.72;;;;;;;23.35;54.35;100944.41;5113012;28;20031;-71
2021/06/18 05:24:33;;;;;;;9.18;6.45;;;;;;;23.34;55.15;100959.28;5098257;28;20384;-71
2021/06/18 05:26:59;;;;;;;10.65;7.25;;;;;;;22.92;55.42;100955.69;5103564;27;20062;-71
2021/06/18 05:29:24;;;;;;;12.95;7.03;;;;;;;22.96;54.30;100952.19;5107385;27;20020;-71
2021/06/18 05:31:50;;;;;;;12.57;7.30;;;;;;;23.05;55.29;100960.09;5115264;27;20502;-72
2021/06/18 05:34:15;;;;;;;8.68;6.72;;;;;;;23.23;53.99;100961.00;5106356;27;20398;-71
2021/06/18 05:36:44;;;;;;;11.32;6.75;;;;;;;23.46;53.21;100957.56;5126366;27;20471;-71
2021/06/18 05:39:11;;;;;;;10.63;7.07;;;;;;;23.50;51.94;100969.81;5091847;27;20046;-71
2021/06/18 05:41:37;;;;;;;11.80;6.72;;;;;;;23.48;52.04;100966.31;5106501;27;20027;-71
2021/06/18 05:44:03;;;;;;;11.07;6.35;;;;;;;23.52;51.25;100968.06;5107789;27;20030;-71
2021/06/18 05:46:29;;;;;;;13.40;6.97;;;;;;;23.49;51.52;100970.69;5124180;27;20070;-71
2021/06/18 05:48:54;;;;;;;9.48;6.97;;;;;;;23.66;51.57;100956.69;5108372;27;20023;-71
2021/06/18 05:51:20;;;;;;;11.80;6.38;;;;;;;23.74;51.55;100957.56;5124521;27;20065;-71
2021/06/18 05:53:45;;;;;;;12.93;6.35;;;;;;;23.73;50.84;100976.84;5105881;27;20064;-71
2021/06/18 05:56:11;;;;;;;9.63;6.53;;;;;;;23.84;51.37;100964.56;5105602;27;20153;-71
2021/06/18 05:58:36;;;;;;;11.32;6.93;;;;;;;23.82;51.59;100971.56;5107608;27;20030;-71
2021/06/18 06:01:02;;;;;;;11.30;7.07;;;;;;;23.93;51.34;100974.22;5089443;27;20055;-71
2021/06/18 06:03:27;;;;;;;11.05;7.25;;;;;;;23.86;51.63;100968.09;5114423;27;20018;-71
2021/06/18 06:05:53;;;;;;;11.52;6.72;;;;;;;24.07;52.54;100966.34;5109793;28;20537;-71
2021/06/18 06:08:18;;;;;;;18.63;6.80;;;;;;;24.11;52.22;100961.94;5109251;28;20024;-71
2021/06/18 06:10:48;;;;;;;11.05;6.75;;;;;;;24.06;53.12;100969.84;5113074;28;20043;-71
2021/06/18 06:13:21;;;;;;;10.77;7.28;;;;;;;23.80;52.93;100973.31;5096026;28;20047;-71
2021/06/18 06:15:47;;;;;;;13.00;7.03;;;;;;;23.71;52.44;100979.47;5095755;28;20028;-71
2021/06/18 06:18:14;;;;;;;10.93;6.43;;;;;;;23.83;53.12;100973.31;5114509;28;20084;-71
2021/06/18 06:20:41;;;;;;;10.32;6.75;;;;;;;24.30;52.39;100973.31;5109812;28;20039;-71
2021/06/18 06:23:06;;;;;;;9.45;6.22;;;;;;;24.27;51.26;100978.56;5096302;28;20134;-71
2021/06/18 06:25:32;;;;;;;11.00;7.13;;;;;;;24.32;51.55;100982.06;5096770;28;20547;-71
2021/06/18 06:31:19;;;;;;;9.88;7.20;;;;;;;24.54;50.61;100976.75;5108470;28;20105;-71
2021/06/18 06:33:45;;;;;;;11.75;6.93;;;;;;;24.43;51.22;100975.03;5094079;28;20019;-70
2021/06/18 06:36:12;;;;;;;13.18;7.57;;;;;;;24.56;51.09;100981.13;5112590;28;20504;-71
2021/06/18 06:38:38;;;;;;;11.52;6.13;;;;;;;24.78;51.19;100976.66;5103816;28;20067;-71
2021/06/18 06:41:04;;;;;;;7.63;6.55;;;;;;;24.87;50.52;100980.13;5112970;28;20015;-70
2021/06/18 06:43:30;;;;;;;13.75;7.40;;;;;;;24.88;49.80;100981.88;5079306;28;20051;-71
2021/06/18 06:45:55;;;;;;;10.05;7.25;;;;;;;25.06;49.87;100979.19;5110429;28;20445;-71
2021/06/18 06:48:21;;;;;;;12.32;6.93;;;;;;;25.18;49.15;100977.34;5092563;28;20039;-71
2021/06/18 06:50:48;;;;;;;13.27;7.30;;;;;;;25.39;48.88;100978.97;5092098;28;20036;-70
2021/06/18 06:53:13;;;;;;;12.07;6.70;;;;;;;25.37;49.40;100981.63;5077586;28;20388;-70
2021/06/18 06:55:39;;;;;;;10.13;6.75;;;;;;;25.60;49.15;100983.25;5077946;28;20030;-70
2021/06/18 06:58:05;;;;;;;18.05;6.97;;;;;;;25.78;48.69;100973.41;5093122;28;20046;-71
2021/06/18 07:00:31;;;;;;;12.18;6.28;;;;;;;25.72;48.61;100977.00;5094735;28;20030;-71
2021/06/18 07:02:56;;;;;;;10.40;6.25;;;;;;;26.05;48.60;100979.34;5077609;28;20034;-72
2021/06/18 07:05:23;;;;;;;9.85;6.60;;;;;;;26.33;46.55;100977.31;5094195;28;20027;-71
2021/06/18 07:07:48;;;;;;;8.68;6.78;;;;;;;26.39;46.87;100977.22;5076467;28;20035;-71
2021/06/18 07:10:14;;;;;;;10.38;6.32;;;;;;;26.41;46.80;100971.94;5113175;28;20035;-70
2021/06/18 07:12:39;;;;;;;7.97;7.10;;;;;;;26.57;45.95;100974.41;5112599;28;20019;-70
2021/06/18 07:15:06;;;;;;;9.45;6.13;;;;;;;26.59;46.11;100970.88;5088764;28;20023;-71
2021/06/18 07:17:31;;;;;;;9.15;6.32;;;;;;;26.67;46.07;100973.41;5093488;28;20028;-71
2021/06/18 07:19:57;;;;;;;7.40;6.47;;;;;;;26.61;44.64;100978.75;5093473;28;20543;-71
2021/06/18 07:22:24;;;;;;;9.50;6.57;;;;;;;26.76;46.19;100983.84;5094532;28;20024;-71
2021/06/18 07:24:50;;;;;;;8.65;6.43;;;;;;;26.93;45.04;100980.13;5112876;28;20077;-71
2021/06/18 07:27:17;;;;;;;11.27;6.93;;;;;;;27.09;44.86;100992.28;5077917;28;20023;-71
2021/06/18 07:29:43;;;;;;;10.88;6.63;;;;;;;27.16;43.93;100992.19;5095479;28;20099;-71
2021/06/18 07:32:09;;;;;;;10.32;5.70;;;;;;;27.19;43.89;100992.13;5113230;28;20027;-70
2021/06/18 07:34:35;;;;;;;10.52;6.38;;;;;;;27.34;42.93;100991.91;5095032;28;20125;-71
2021/06/18 07:37:01;;;;;;;10.23;6.45;;;;;;;27.38;43.41;100996.25;5079013;28;20524;-71
2021/06/18 07:39:26;;;;;;;7.80;6.13;;;;;;;27.54;42.59;100993.38;5113317;28;20286;-71
2021/06/18 07:41:51;;;;;;;11.55;6.63;;;;;;;27.73;42.67;100990.44;5077799;28;20418;-70
2021/06/18 07:44:17;;;;;;;12.27;6.28;;;;;;;27.93;42.32;100975.06;5094703;28;20046;-71
2021/06/18 07:46:42;;;;;;;12.35;5.82;;;;;;;28.06;42.57;100990.75;5111682;28;20115;-71
2021/06/18 07:49:08;;;;;;;11.18;5.88;;;;;;;28.15;40.29;100980.03;5094532;28;20514;-70
2021/06/18 07:51:34;;;;;;;10.25;5.97;;;;;;;28.22;42.08;100975.47;5095458;28;20477;-71
2021/06/18 07:53:59;;;;;;;14.60;6.65;;;;;;;28.36;40.24;100977.88;5078397;28;20019;-72
2021/06/18 07:56:26;;;;;;;9.77;5.85;;;;;;;28.17;39.64;100972.94;5113557;28;20023;-70
2021/06/18 07:59:30;;;;;;;9.68;5.70;;;;;;;28.35;39.17;100976.97;5107296;28;20175;-71
2021/06/18 08:01:55;;;;;;;13.90;6.10;;;;;;;28.65;41.22;100979.94;5104563;28;20107;-71
2021/06/18 08:04:21;;;;;;;16.35;5.80;;;;;;;28.85;40.15;100982.16;5088754;28;20110;-71
2021/06/18 08:06:46;;;;;;;10.75;6.05;;;;;;;29.08;37.77;100967.53;5092624;28;20096;-71
2021/06/18 08:09:12;;;;;;;10.02;5.47;;;;;;;29.24;38.54;100972.50;5108100;28;20031;-71
2021/06/18 08:11:37;;;;;;;6.05;5.45;;;;;;;29.39;38.93;100965.97;5093408;28;20062;-71
2021/06/18 08:14:03;;;;;;;6.35;5.25;;;;;;;29.58;38.56;100966.38;5110716;28;20092;-71
2021/06/18 08:16:29;;;;;;;8.75;5.97;;;;;;;29.77;37.46;100960.59;5107532;28;20536;-71
2021/06/18 08:18:55;;;;;;;8.18;5.53;;;;;;;29.89;36.78;100965.59;5110544;28;20028;-71
2021/06/18 08:21:21;;;;;;;11.82;5.82;;;;;;;29.98;37.07;100962.69;5109077;28;20040;-71
2021/06/18 08:23:46;;;;;;;12.82;5.32;;;;;;;30.10;36.56;100957.97;5092140;28;20030;-72
2021/06/18 08:26:11;;;;;;;10.82;5.47;;;;;;;30.14;35.89;100970.25;5092803;28;20488;-72
2021/06/18 08:28:37;;;;;;;7.78;5.57;;;;;;;30.18;35.42;100966.59;5088738;28;20038;-71
2021/06/18 08:31:04;;;;;;;9.05;5.68;;;;;;;30.43;35.17;100961.47;5091540;28;20036;-71
2021/06/18 08:33:33;;;;;;;14.85;5.07;;;;;;;30.60;35.81;100962.78;5111066;28;20054;-70
2021/06/18 08:35:59;;;;;;;21.08;5.53;;;;;;;30.70;34.77;100952.78;5093225;28;20039;-71
2021/06/18 08:38:24;;;;;;;12.05;5.45;;;;;;;30.83;35.26;100943.50;5109959;28;20031;-70
2021/06/18 08:40:50;;;;;;;10.23;5.57;;;;;;;31.05;35.54;100940.16;5092990;28;20027;-71
2021/06/18 08:43:15;;;;;;;14.13;5.22;;;;;;;31.08;33.46;100937.41;5111199;28;20030;-70
2021/06/18 08:45:41;;;;;;;6.57;4.90;;;;;;;31.13;33.38;100934.59;5092850;28;20031;-70
2021/06/18 08:48:07;;;;;;;7.55;4.80;;;;;;;31.33;35.03;100931.34;5092364;28;20365;-71
2021/06/18 08:50:33;;;;;;;15.30;5.20;;;;;;;31.58;34.22;100930.50;5110723;28;20026;-71
2021/06/18 08:53:00;;;;;;;12.02;5.32;;;;;;;31.73;33.26;100935.28;5088863;28;20031;-71
2021/06/18 08:55:30;;;;;;;11.95;5.07;;;;;;;31.99;34.56;100928.19;5083701;28;20028;-70
2021/06/18 08:57:59;;;;;;;10.63;4.97;;;;;;;31.86;33.80;100924.22;5082317;28;20019;-71
2021/06/18 09:00:26;;;;;;;15.88;5.07;;;;;;;32.15;34.62;100935.63;5076718;28;20016;-71
2021/06/18 09:02:52;;;;;;;9.55;4.85;;;;;;;32.39;32.67;100933.03;5088516;28;20400;-70
2021/06/18 09:05:21;;;;;;;6.85;4.63;;;;;;;32.70;33.31;100942.50;5089212;28;20057;-70
2021/06/18 09:07:59;;;;;;;9.23;4.93;;;;;;;32.86;33.14;100937.44;5097521;28;20110;-71
2021/06/18 09:10:36;;;;;;;8.45;4.88;;;;;;;33.08;31.95;100942.78;5084391;28;20027;-70
2021/06/18 09:13:40;;;;;;;8.73;4.20;;;;;;;33.37;31.48;100938.03;5083599;28;20019;-71
2021/06/18 09:16:06;;;;;;;9.25;4.70;;;;;;;33.34;31.25;100935.50;5093066;28;20027;-70
2021/06/18 09:18:33;;;;;;;9.48;4.35;;;;;;;33.68;29.89;100936.78;5107442;28;20028;-70
2021/06/18 09:21:01;;;;;;;7.93;5.05;;;;;;;33.85;30.07;100937.84;5096342;28;20024;-70
2021/06/18 09:26:49;;;;;;;7.72;5.00;;;;;;;34.54;29.98;100925.00;5109464;28;20041;-71
2021/06/18 09:29:17;;;;;;;6.00;4.78;;;;;;;34.53;28.96;100929.47;5113878;28;20019;-69
2021/06/18 09:31:58;;;;;;;11.30;5.10;;;;;;;35.10;30.33;100934.78;5098257;28;20059;-70
2021/06/18 09:37:23;;;;;;;7.18;4.90;;;;;;;38.27;23.15;100927.09;5094259;28;20042;-70
2021/06/18 09:39:57;;;;;;;10.23;5.05;;;;;;;38.24;24.42;100913.84;5094243;28;20118;-70
2021/06/18 09:42:26;;;;;;;8.40;4.47;;;;;;;38.49;24.15;100914.97;5110454;28;20031;-70
2021/06/18 09:45:11;;;;;;;;;;;;;;;38.52;23.02;100920.16;5096970;28;20027;-71
2021/06/18 09:47:37;;;;;;;6.70;4.85;;;;;;;38.55;23.67;100915.47;5092116;28;19920;-70
2021/06/18 09:50:06;;;;;;;6.15;5.05;;;;;;;39.01;23.60;100916.09;5114073;28;20050;-70
2021/06/18 09:52:33;;;;;;;7.75;4.80;;;;;;;39.57;22.27;100913.19;5106096;28;20087;-70
2021/06/18 09:54:58;;;;;;;9.43;4.93;;;;;;;39.41;21.78;100915.25;5083210;28;20442;-70
2021/06/18 09:57:41;;;;;;;9.02;4.70;;;;;;;40.11;21.00;100905.88;5094915;28;20020;-70
2021/06/18 10:00:09;;;;;;;6.90;4.40;;;;;;;41.43;19.85;100914.22;5113756;28;20552;-70
2021/06/18 10:02:38;;;;;;;8.20;4.43;;;;;;;43.61;17.89;100919.97;5093373;28;20035;-69
2021/06/18 10:05:06;;;;;;;6.25;3.95;;;;;;;44.78;15.36;100913.22;5101662;28;20269;-70
2021/06/18 10:07:34;;;;;;;11.88;5.80;;;;;;;43.69;16.80;100904.91;5096116;28;20032;-71
2021/06/18 10:10:01;;;;;;;5.70;4.18;;;;;;;44.31;16.00;100903.00;5094901;28;20027;-71
2021/06/18 10:12:28;;;;;;;8.38;4.38;;;;;;;44.41;15.76;100894.88;5094325;28;20027;-72
2021/06/18 10:14:55;;;;;;;6.97;4.15;;;;;;;43.87;16.36;100897.00;5082119;28;20729;-71
2021/06/18 10:17:21;;;;;;;10.70;4.57;;;;;;;42.25;18.25;100898.81;5113044;28;20029;-72
2021/06/18 10:19:46;;;;;;;6.95;4.43;;;;;;;43.23;16.81;100899.75;5092319;28;20115;-71
2021/06/18 10:22:14;;;;;;;8.68;4.53;;;;;;;45.11;15.65;100890.38;5095901;28;20055;-71
2021/06/18 10:24:53;;;;;;;10.38;4.78;;;;;;;44.68;15.68;100879.78;5063049;28;20031;-71
2021/06/18 10:27:19;;;;;;;;;;;;;;;46.01;15.00;100887.22;5113182;28;20039;-72
2021/06/18 10:29:45;;;;;;;6.88;4.25;;;;;;;46.63;14.05;100889.31;5092356;28;19916;-71
2021/06/18 10:32:31;;;;;;;8.60;4.57;;;;;;;46.94;13.73;100894.38;5074493;28;20024;-70
2021/06/18 10:34:58;;;;;;;8.07;4.28;;;;;;;46.47;13.29;100877.25;5072261;28;20033;-70
2021/06/18 10:37:26;;;;;;;7.30;3.85;;;;;;;45.83;14.18;100885.31;5073353;28;20099;-70
2021/06/18 10:39:55;;;;;;;6.22;4.38;;;;;;;46.75;13.76;100882.63;5072182;28;20028;-71
2021/06/18 10:42:22;;;;;;;8.73;4.00;;;;;;;47.01;13.16;100890.00;5074127;28;20111;-70
2021/06/18 10:44:52;;;;;;;5.50;3.88;;;;;;;46.88;13.64;100889.56;5093740;28;20435;-70
2021/06/18 10:47:24;;;;;;;5.78;4.40;;;;;;;46.03;14.44;100879.78;5092195;28;20024;-70
2021/06/18 10:49:51;;;;;;;6.90;5.20;;;;;;;43.51;17.02;100886.53;5093477;28;20023;-70
2021/06/18 10:52:19;;;;;;;5.30;4.20;;;;;;;44.96;15.24;100882.66;5092206;28;20030;-69
2021/06/18 10:54:50;;;;;;;6.70;4.07;;;;;;;45.77;14.23;100878.63;5093529;28;20020;-70
2021/06/18 10:57:18;;;;;;;6.95;3.70;;;;;;;46.57;13.38;100871.72;5092254;28;20272;-71
2021/06/18 10:59:46;;;;;;;6.85;4.20;;;;;;;45.43;15.08;100872.88;5092507;28;20180;-70
2021/06/18 11:02:21;;;;;;;7.38;4.03;;;;;;;41.68;17.85;100863.66;5092126;28;20537;-70
2021/06/18 11:04:54;;;;;;;8.70;3.83;;;;;;;43.81;16.13;100865.00;5093298;28;20024;-70
2021/06/18 11:07:37;;;;;;;8.07;3.58;;;;;;;42.27;17.08;100864.38;5076153;28;20036;-70
2021/06/18 11:10:06;;;;;;;9.15;4.10;;;;;;;43.74;16.35;100870.09;5092332;28;20058;-70
2021/06/18 11:12:44;;;;;;;7.00;3.58;;;;;;;41.54;17.23;100862.03;5087381;28;20032;-70
2021/06/18 11:15:15;;;;;;;5.73;3.53;;;;;;;40.80;17.94;100874.81;5086468;28;20035;-70
2021/06/18 11:18:11;;;;;;;10.07;4.05;;;;;;;38.92;20.80;100876.34;5093977;28;20016;-69
2021/06/18 11:20:37;;;;;;;5.53;3.50;;;;;;;39.18;20.13;100879.94;5056914;28;20029;-71
2021/06/18 11:23:09;;;;;;;4.85;3.85;;;;;;;38.87;20.51;100876.63;5083727;28;20034;-71
2021/06/18 11:25:37;;;;;;;9.70;3.63;;;;;;;38.65;20.96;100878.03;5092723;28;20077;-71
2021/06/18 11:31:13;;;;;;;4.45;3.45;;;;;;;38.31;21.62;100864.09;5105046;28;19922;-71
2021/06/18 11:33:43;;;;;;;6.32;4.10;;;;;;;38.02;22.28;100869.50;5093710;28;20084;-71
2021/06/18 11:36:35;;;;;;;4.75;3.65;;;;;;;36.66;24.10;100873.94;5111899;28;20066;-71
2021/06/18 11:39:04;;;;;;;8.65;4.18;;;;;;;36.31;25.19;100871.41;5091333;28;20048;-71